Avon, Colorado
Current Conditions -  °F | °C
As of 1:55 AM on Wednesday 22 Oct 2014 (Local Time) from KEGE Reporting Station
Overcast Overcast  
Wind Chill:   Ceiling: 5000
Heat Index:   Visibility: 9mi
Dew Point:   Wind: 7mph
Humidity: 87%   Direction: 150°SSE
Pressure: 30.17"   Gusts: NA
Location:  39.63°N, 106.52°W
Report Text: KEGE 220755Z AUTO 15006KT 9SM SCT046 OVC050 08/06 A3017 RMK AO1 P0003
Loading
Personal Weather Stations






























Interactive Weather Map
Tropical Storm Tracking
New forecast layout! Learn more

10-Day Weather Forecast

Advertisements
Track Severe Weather on mobile